sensor_id;sensor_type;location;lat;lon;timestamp;P1;durP1;ratioP1;P2;durP2;ratioP2
30398;SDS011;17195;50.838;7.214;2023-04-25T00:00:24;8.75;;;3.55;;
30398;SDS011;17195;50.838;7.214;2023-04-25T00:02:50;5.90;;;2.50;;
30398;SDS011;17195;50.838;7.214;2023-04-25T00:05:15;7.18;;;3.65;;
30398;SDS011;17195;50.838;7.214;2023-04-25T00:07:41;6.28;;;3.30;;
30398;SDS011;17195;50.838;7.214;2023-04-25T00:10:08;9.48;;;3.70;;
30398;SDS011;17195;50.838;7.214;2023-04-25T00:12:35;7.38;;;4.05;;
30398;SDS011;17195;50.838;7.214;2023-04-25T00:15:01;8.00;;;3.58;;
30398;SDS011;17195;50.838;7.214;2023-04-25T00:17:27;10.05;;;4.07;;
30398;SDS011;17195;50.838;7.214;2023-04-25T00:19:53;13.40;;;4.40;;
30398;SDS011;17195;50.838;7.214;2023-04-25T00:22:19;7.45;;;3.63;;
30398;SDS011;17195;50.838;7.214;2023-04-25T00:24:45;9.82;;;3.72;;
30398;SDS011;17195;50.838;7.214;2023-04-25T00:27:11;11.23;;;3.83;;
30398;SDS011;17195;50.838;7.214;2023-04-25T00:29:37;10.63;;;4.57;;
30398;SDS011;17195;50.838;7.214;2023-04-25T00:32:02;16.08;;;4.40;;
30398;SDS011;17195;50.838;7.214;2023-04-25T00:34:28;6.45;;;3.30;;
30398;SDS011;17195;50.838;7.214;2023-04-25T00:36:53;4.65;;;2.90;;
30398;SDS011;17195;50.838;7.214;2023-04-25T00:39:19;4.22;;;2.40;;
30398;SDS011;17195;50.838;7.214;2023-04-25T00:41:45;5.95;;;2.53;;
30398;SDS011;17195;50.838;7.214;2023-04-25T00:44:10;5.43;;;2.38;;
30398;SDS011;17195;50.838;7.214;2023-04-25T00:46:38;6.60;;;2.75;;
30398;SDS011;17195;50.838;7.214;2023-04-25T00:49:04;9.57;;;4.25;;
30398;SDS011;17195;50.838;7.214;2023-04-25T00:51:30;5.03;;;2.83;;
30398;SDS011;17195;50.838;7.214;2023-04-25T00:53:57;10.57;;;3.38;;
30398;SDS011;17195;50.838;7.214;2023-04-25T00:56:23;4.35;;;2.85;;
30398;SDS011;17195;50.838;7.214;2023-04-25T00:58:49;5.05;;;2.50;;
30398;SDS011;17195;50.838;7.214;2023-04-25T01:01:18;6.30;;;2.70;;
30398;SDS011;17195;50.838;7.214;2023-04-25T01:03:44;5.45;;;2.92;;
30398;SDS011;17195;50.838;7.214;2023-04-25T02:10:08;11.20;;;5.05;;
30398;SDS011;17195;50.838;7.214;2023-04-25T02:12:35;13.00;;;4.97;;
30398;SDS011;17195;50.838;7.214;2023-04-25T02:15:01;13.77;;;5.60;;
30398;SDS011;17195;50.838;7.214;2023-04-25T02:17:27;9.00;;;3.88;;
30398;SDS011;17195;50.838;7.214;2023-04-25T02:19:52;10.55;;;3.58;;
30398;SDS011;17195;50.838;7.214;2023-04-25T02:22:18;12.38;;;4.88;;
30398;SDS011;17195;50.838;7.214;2023-04-25T02:24:43;10.40;;;3.45;;
30398;SDS011;17195;50.838;7.214;2023-04-25T02:27:09;7.75;;;3.42;;
30398;SDS011;17195;50.838;7.214;2023-04-25T02:29:35;10.35;;;3.78;;
30398;SDS011;17195;50.838;7.214;2023-04-25T02:32:00;9.30;;;3.70;;
30398;SDS011;17195;50.838;7.214;2023-04-25T02:34:26;7.35;;;3.65;;
30398;SDS011;17195;50.838;7.214;2023-04-25T02:36:51;9.57;;;3.15;;
30398;SDS011;17195;50.838;7.214;2023-04-25T02:39:17;9.93;;;3.90;;
30398;SDS011;17195;50.838;7.214;2023-04-25T02:41:42;7.10;;;3.00;;
30398;SDS011;17195;50.838;7.214;2023-04-25T02:44:08;10.27;;;3.63;;
30398;SDS011;17195;50.838;7.214;2023-04-25T02:46:33;9.20;;;3.80;;
30398;SDS011;17195;50.838;7.214;2023-04-25T02:48:59;8.80;;;3.33;;
30398;SDS011;17195;50.838;7.214;2023-04-25T02:51:24;7.65;;;3.10;;
30398;SDS011;17195;50.838;7.214;2023-04-25T02:53:51;6.43;;;2.97;;
30398;SDS011;17195;50.838;7.214;2023-04-25T02:56:17;10.02;;;3.40;;
30398;SDS011;17195;50.838;7.214;2023-04-25T02:58:42;10.10;;;3.05;;
30398;SDS011;17195;50.838;7.214;2023-04-25T03:01:08;12.88;;;3.55;;
30398;SDS011;17195;50.838;7.214;2023-04-25T03:03:33;7.10;;;3.80;;
30398;SDS011;17195;50.838;7.214;2023-04-25T03:05:59;8.63;;;3.72;;
30398;SDS011;17195;50.838;7.214;2023-04-25T03:08:24;9.55;;;3.53;;
30398;SDS011;17195;50.838;7.214;2023-04-25T03:10:51;11.25;;;3.78;;
30398;SDS011;17195;50.838;7.214;2023-04-25T03:13:20;7.90;;;3.55;;
30398;SDS011;17195;50.838;7.214;2023-04-25T03:15:46;12.38;;;3.78;;
30398;SDS011;17195;50.838;7.214;2023-04-25T03:18:11;11.45;;;4.05;;
30398;SDS011;17195;50.838;7.214;2023-04-25T03:20:37;8.95;;;3.90;;
30398;SDS011;17195;50.838;7.214;2023-04-25T03:23:04;7.95;;;4.43;;
30398;SDS011;17195;50.838;7.214;2023-04-25T03:25:29;12.90;;;5.43;;
30398;SDS011;17195;50.838;7.214;2023-04-25T03:27:55;19.75;;;7.60;;
30398;SDS011;17195;50.838;7.214;2023-04-25T03:30:20;14.60;;;6.20;;
30398;SDS011;17195;50.838;7.214;2023-04-25T03:32:46;17.05;;;5.70;;
30398;SDS011;17195;50.838;7.214;2023-04-25T03:35:12;10.93;;;5.30;;
30398;SDS011;17195;50.838;7.214;2023-04-25T03:37:37;11.18;;;4.40;;
30398;SDS011;17195;50.838;7.214;2023-04-25T03:40:03;14.75;;;5.05;;
30398;SDS011;17195;50.838;7.214;2023-04-25T03:42:29;11.55;;;4.38;;
30398;SDS011;17195;50.838;7.214;2023-04-25T03:44:54;11.48;;;4.18;;
30398;SDS011;17195;50.838;7.214;2023-04-25T03:47:20;8.57;;;4.35;;
30398;SDS011;17195;50.838;7.214;2023-04-25T03:49:45;10.18;;;4.55;;
30398;SDS011;17195;50.838;7.214;2023-04-25T03:52:11;10.43;;;4.25;;
30398;SDS011;17195;50.838;7.214;2023-04-25T03:54:37;15.82;;;4.80;;
30398;SDS011;17195;50.838;7.214;2023-04-25T03:57:02;12.32;;;4.05;;
30398;SDS011;17195;50.838;7.214;2023-04-25T03:59:28;9.15;;;4.03;;
30398;SDS011;17195;50.838;7.214;2023-04-25T04:01:53;9.48;;;4.32;;
30398;SDS011;17195;50.838;7.214;2023-04-25T04:04:19;10.48;;;4.75;;
30398;SDS011;17195;50.838;7.214;2023-04-25T04:06:45;12.93;;;5.15;;
30398;SDS011;17195;50.838;7.214;2023-04-25T04:09:10;10.90;;;4.45;;
30398;SDS011;17195;50.838;7.214;2023-04-25T04:11:37;10.02;;;4.88;;
30398;SDS011;17195;50.838;7.214;2023-04-25T04:14:04;12.45;;;4.90;;
30398;SDS011;17195;50.838;7.214;2023-04-25T04:16:31;16.55;;;5.05;;
30398;SDS011;17195;50.838;7.214;2023-04-25T04:18:56;13.48;;;5.38;;
30398;SDS011;17195;50.838;7.214;2023-04-25T04:21:22;12.43;;;4.88;;
30398;SDS011;17195;50.838;7.214;2023-04-25T04:23:47;14.15;;;4.97;;
30398;SDS011;17195;50.838;7.214;2023-04-25T04:26:13;11.07;;;4.57;;
30398;SDS011;17195;50.838;7.214;2023-04-25T04:28:41;7.75;;;4.07;;
30398;SDS011;17195;50.838;7.214;2023-04-25T04:31:08;9.05;;;4.30;;
30398;SDS011;17195;50.838;7.214;2023-04-25T04:33:35;9.68;;;4.38;;
30398;SDS011;17195;50.838;7.214;2023-04-25T04:36:01;11.18;;;4.53;;
30398;SDS011;17195;50.838;7.214;2023-04-25T04:38:28;16.65;;;4.45;;
30398;SDS011;17195;50.838;7.214;2023-04-25T04:40:54;13.18;;;4.32;;
30398;SDS011;17195;50.838;7.214;2023-04-25T04:43:19;11.38;;;4.10;;
30398;SDS011;17195;50.838;7.214;2023-04-25T04:45:45;11.93;;;4.40;;
30398;SDS011;17195;50.838;7.214;2023-04-25T04:48:10;12.15;;;4.60;;
30398;SDS011;17195;50.838;7.214;2023-04-25T04:50:38;14.82;;;5.13;;
30398;SDS011;17195;50.838;7.214;2023-04-25T04:53:05;8.77;;;4.65;;
30398;SDS011;17195;50.838;7.214;2023-04-25T04:55:30;14.73;;;5.68;;
30398;SDS011;17195;50.838;7.214;2023-04-25T04:57:56;11.32;;;5.35;;
30398;SDS011;17195;50.838;7.214;2023-04-25T05:00:22;11.10;;;5.70;;
30398;SDS011;17195;50.838;7.214;2023-04-25T05:02:47;14.02;;;6.00;;
30398;SDS011;17195;50.838;7.214;2023-04-25T05:05:14;19.42;;;6.72;;
30398;SDS011;17195;50.838;7.214;2023-04-25T05:07:39;13.27;;;6.20;;
30398;SDS011;17195;50.838;7.214;2023-04-25T05:10:05;17.80;;;6.05;;
30398;SDS011;17195;50.838;7.214;2023-04-25T05:12:31;12.73;;;6.10;;
30398;SDS011;17195;50.838;7.214;2023-04-25T05:14:57;18.30;;;5.95;;
30398;SDS011;17195;50.838;7.214;2023-04-25T05:17:22;21.38;;;6.45;;
30398;SDS011;17195;50.838;7.214;2023-04-25T05:19:48;15.50;;;4.72;;
30398;SDS011;17195;50.838;7.214;2023-04-25T05:22:13;16.95;;;5.05;;
30398;SDS011;17195;50.838;7.214;2023-04-25T05:24:39;15.75;;;5.60;;
30398;SDS011;17195;50.838;7.214;2023-04-25T05:27:04;17.08;;;6.47;;
30398;SDS011;17195;50.838;7.214;2023-04-25T05:29:30;13.60;;;5.55;;
30398;SDS011;17195;50.838;7.214;2023-04-25T05:31:56;18.02;;;5.93;;
30398;SDS011;17195;50.838;7.214;2023-04-25T05:34:21;17.90;;;5.95;;
30398;SDS011;17195;50.838;7.214;2023-04-25T05:36:47;12.43;;;5.55;;
30398;SDS011;17195;50.838;7.214;2023-04-25T05:39:14;15.55;;;6.68;;
30398;SDS011;17195;50.838;7.214;2023-04-25T05:41:42;14.38;;;6.22;;
30398;SDS011;17195;50.838;7.214;2023-04-25T05:44:08;18.77;;;7.05;;
30398;SDS011;17195;50.838;7.214;2023-04-25T05:46:34;21.10;;;6.72;;
30398;SDS011;17195;50.838;7.214;2023-04-25T05:48:59;17.05;;;6.90;;
30398;SDS011;17195;50.838;7.214;2023-04-25T05:51:25;19.83;;;6.78;;
30398;SDS011;17195;50.838;7.214;2023-04-25T05:53:50;23.75;;;7.22;;
30398;SDS011;17195;50.838;7.214;2023-04-25T05:56:16;17.27;;;6.28;;
30398;SDS011;17195;50.838;7.214;2023-04-25T05:58:42;20.52;;;7.28;;
30398;SDS011;17195;50.838;7.214;2023-04-25T06:01:07;18.80;;;8.10;;
30398;SDS011;17195;50.838;7.214;2023-04-25T06:03:33;25.35;;;8.05;;
30398;SDS011;17195;50.838;7.214;2023-04-25T06:05:59;22.75;;;8.55;;
30398;SDS011;17195;50.838;7.214;2023-04-25T06:08:25;17.80;;;7.22;;
30398;SDS011;17195;50.838;7.214;2023-04-25T06:10:50;20.75;;;7.82;;
30398;SDS011;17195;50.838;7.214;2023-04-25T06:13:16;24.15;;;7.43;;
30398;SDS011;17195;50.838;7.214;2023-04-25T06:15:41;20.27;;;7.95;;
30398;SDS011;17195;50.838;7.214;2023-04-25T06:18:07;17.95;;;5.85;;
30398;SDS011;17195;50.838;7.214;2023-04-25T06:20:33;21.42;;;7.45;;
30398;SDS011;17195;50.838;7.214;2023-04-25T06:22:58;22.10;;;7.35;;
30398;SDS011;17195;50.838;7.214;2023-04-25T06:25:24;24.63;;;7.25;;
30398;SDS011;17195;50.838;7.214;2023-04-25T06:27:50;24.00;;;7.53;;
30398;SDS011;17195;50.838;7.214;2023-04-25T06:30:15;23.75;;;7.22;;
30398;SDS011;17195;50.838;7.214;2023-04-25T06:32:43;29.45;;;6.93;;
30398;SDS011;17195;50.838;7.214;2023-04-25T06:35:08;27.17;;;7.35;;
30398;SDS011;17195;50.838;7.214;2023-04-25T06:37:35;18.55;;;7.35;;
30398;SDS011;17195;50.838;7.214;2023-04-25T06:40:00;26.45;;;7.30;;
30398;SDS011;17195;50.838;7.214;2023-04-25T06:42:26;22.17;;;6.57;;
30398;SDS011;17195;50.838;7.214;2023-04-25T06:44:51;17.88;;;7.43;;
30398;SDS011;17195;50.838;7.214;2023-04-25T06:47:17;20.88;;;6.82;;
30398;SDS011;17195;50.838;7.214;2023-04-25T06:49:42;21.02;;;6.72;;
30398;SDS011;17195;50.838;7.214;2023-04-25T06:52:08;20.83;;;7.07;;
30398;SDS011;17195;50.838;7.214;2023-04-25T06:54:33;20.15;;;6.80;;
30398;SDS011;17195;50.838;7.214;2023-04-25T06:56:59;25.55;;;7.30;;
30398;SDS011;17195;50.838;7.214;2023-04-25T06:59:26;20.00;;;6.38;;
30398;SDS011;17195;50.838;7.214;2023-04-25T07:01:51;23.95;;;7.32;;
30398;SDS011;17195;50.838;7.214;2023-04-25T07:04:17;28.00;;;6.63;;
30398;SDS011;17195;50.838;7.214;2023-04-25T07:06:42;21.27;;;6.40;;
30398;SDS011;17195;50.838;7.214;2023-04-25T07:09:08;16.10;;;6.60;;
30398;SDS011;17195;50.838;7.214;2023-04-25T07:11:37;20.83;;;7.00;;
30398;SDS011;17195;50.838;7.214;2023-04-25T07:14:02;18.02;;;5.65;;
30398;SDS011;17195;50.838;7.214;2023-04-25T07:16:28;23.48;;;5.95;;
30398;SDS011;17195;50.838;7.214;2023-04-25T07:18:54;18.45;;;4.65;;
30398;SDS011;17195;50.838;7.214;2023-04-25T07:21:20;15.45;;;4.50;;
30398;SDS011;17195;50.838;7.214;2023-04-25T07:23:45;19.77;;;4.85;;
30398;SDS011;17195;50.838;7.214;2023-04-25T07:26:11;23.27;;;5.53;;
30398;SDS011;17195;50.838;7.214;2023-04-25T07:28:37;21.73;;;4.72;;
30398;SDS011;17195;50.838;7.214;2023-04-25T07:31:03;20.67;;;4.13;;
30398;SDS011;17195;50.838;7.214;2023-04-25T07:33:28;22.15;;;5.55;;
30398;SDS011;17195;50.838;7.214;2023-04-25T07:35:54;23.25;;;4.65;;
30398;SDS011;17195;50.838;7.214;2023-04-25T07:38:20;16.85;;;4.22;;
30398;SDS011;17195;50.838;7.214;2023-04-25T07:40:47;19.35;;;4.45;;
30398;SDS011;17195;50.838;7.214;2023-04-25T07:43:13;23.25;;;5.03;;
30398;SDS011;17195;50.838;7.214;2023-04-25T07:45:41;21.02;;;5.18;;
30398;SDS011;17195;50.838;7.214;2023-04-25T07:48:07;20.90;;;4.88;;
30398;SDS011;17195;50.838;7.214;2023-04-25T07:50:33;19.17;;;4.38;;
30398;SDS011;17195;50.838;7.214;2023-04-25T07:52:58;13.90;;;4.80;;
30398;SDS011;17195;50.838;7.214;2023-04-25T07:55:24;15.05;;;3.40;;
30398;SDS011;17195;50.838;7.214;2023-04-25T07:57:50;18.67;;;3.58;;
30398;SDS011;17195;50.838;7.214;2023-04-25T08:00:15;15.25;;;3.80;;
30398;SDS011;17195;50.838;7.214;2023-04-25T08:02:41;19.67;;;3.42;;
30398;SDS011;17195;50.838;7.214;2023-04-25T08:05:07;15.02;;;2.75;;
30398;SDS011;17195;50.838;7.214;2023-04-25T08:07:36;13.77;;;3.63;;
30398;SDS011;17195;50.838;7.214;2023-04-25T08:10:02;12.05;;;3.17;;
30398;SDS011;17195;50.838;7.214;2023-04-25T08:12:28;17.80;;;3.15;;
30398;SDS011;17195;50.838;7.214;2023-04-25T08:14:53;18.75;;;3.45;;
30398;SDS011;17195;50.838;7.214;2023-04-25T08:17:19;17.83;;;3.33;;
30398;SDS011;17195;50.838;7.214;2023-04-25T08:19:45;13.25;;;3.28;;
30398;SDS011;17195;50.838;7.214;2023-04-25T08:22:10;16.73;;;3.20;;
30398;SDS011;17195;50.838;7.214;2023-04-25T08:24:36;14.23;;;3.40;;
30398;SDS011;17195;50.838;7.214;2023-04-25T08:27:01;16.15;;;3.58;;
30398;SDS011;17195;50.838;7.214;2023-04-25T08:29:27;17.38;;;3.05;;
30398;SDS011;17195;50.838;7.214;2023-04-25T08:31:53;21.42;;;3.40;;
30398;SDS011;17195;50.838;7.214;2023-04-25T08:34:18;13.75;;;3.17;;
30398;SDS011;17195;50.838;7.214;2023-04-25T08:36:45;13.57;;;3.13;;
30398;SDS011;17195;50.838;7.214;2023-04-25T08:39:11;21.75;;;3.75;;
30398;SDS011;17195;50.838;7.214;2023-04-25T08:41:36;13.63;;;3.58;;
30398;SDS011;17195;50.838;7.214;2023-04-25T08:44:03;15.30;;;3.15;;
30398;SDS011;17195;50.838;7.214;2023-04-25T08:46:29;17.83;;;3.88;;
30398;SDS011;17195;50.838;7.214;2023-04-25T08:48:57;14.02;;;3.03;;
30398;SDS011;17195;50.838;7.214;2023-04-25T08:51:25;16.13;;;3.13;;
30398;SDS011;17195;50.838;7.214;2023-04-25T08:53:53;13.23;;;3.58;;
30398;SDS011;17195;50.838;7.214;2023-04-25T08:56:19;13.38;;;3.25;;
30398;SDS011;17195;50.838;7.214;2023-04-25T08:58:50;7.53;;;2.63;;
30398;SDS011;17195;50.838;7.214;2023-04-25T09:01:17;10.27;;;2.95;;
30398;SDS011;17195;50.838;7.214;2023-04-25T09:03:43;14.85;;;3.53;;
30398;SDS011;17195;50.838;7.214;2023-04-25T09:06:10;10.38;;;2.97;;
30398;SDS011;17195;50.838;7.214;2023-04-25T09:08:37;12.40;;;3.13;;
30398;SDS011;17195;50.838;7.214;2023-04-25T09:11:02;8.65;;;2.83;;
30398;SDS011;17195;50.838;7.214;2023-04-25T09:13:28;15.77;;;2.72;;
30398;SDS011;17195;50.838;7.214;2023-04-25T09:15:54;9.05;;;2.75;;
30398;SDS011;17195;50.838;7.214;2023-04-25T09:18:25;8.82;;;2.47;;
30398;SDS011;17195;50.838;7.214;2023-04-25T09:20:52;18.38;;;2.40;;
30398;SDS011;17195;50.838;7.214;2023-04-25T09:23:19;9.18;;;2.63;;
30398;SDS011;17195;50.838;7.214;2023-04-25T09:25:47;12.98;;;2.83;;
30398;SDS011;17195;50.838;7.214;2023-04-25T09:28:13;13.45;;;2.92;;
30398;SDS011;17195;50.838;7.214;2023-04-25T09:30:39;17.35;;;3.00;;
30398;SDS011;17195;50.838;7.214;2023-04-25T09:33:05;15.35;;;3.13;;
30398;SDS011;17195;50.838;7.214;2023-04-25T09:35:35;13.15;;;2.88;;
30398;SDS011;17195;50.838;7.214;2023-04-25T09:38:06;11.88;;;2.97;;
30398;SDS011;17195;50.838;7.214;2023-04-25T09:40:39;9.55;;;2.80;;
30398;SDS011;17195;50.838;7.214;2023-04-25T09:43:24;8.65;;;2.53;;
30398;SDS011;17195;50.838;7.214;2023-04-25T09:45:50;9.50;;;2.80;;
30398;SDS011;17195;50.838;7.214;2023-04-25T09:48:18;13.18;;;2.92;;
30398;SDS011;17195;50.838;7.214;2023-04-25T09:53:39;9.27;;;2.42;;
30398;SDS011;17195;50.838;7.214;2023-04-25T09:56:09;12.55;;;2.38;;
30398;SDS011;17195;50.838;7.214;2023-04-25T09:58:36;18.48;;;2.47;;
30398;SDS011;17195;50.838;7.214;2023-04-25T10:01:04;13.65;;;2.30;;
30398;SDS011;17195;50.838;7.214;2023-04-25T10:03:32;9.55;;;2.17;;
30398;SDS011;17195;50.838;7.214;2023-04-25T10:06:03;6.88;;;1.70;;
30398;SDS011;17195;50.838;7.214;2023-04-25T10:08:32;9.38;;;2.10;;
30398;SDS011;17195;50.838;7.214;2023-04-25T10:11:00;14.02;;;2.60;;
30398;SDS011;17195;50.838;7.214;2023-04-25T10:13:28;10.88;;;3.00;;
30398;SDS011;17195;50.838;7.214;2023-04-25T10:15:56;12.35;;;2.33;;
30398;SDS011;17195;50.838;7.214;2023-04-25T10:18:23;10.02;;;2.58;;
30398;SDS011;17195;50.838;7.214;2023-04-25T10:20:50;13.27;;;2.72;;
30398;SDS011;17195;50.838;7.214;2023-04-25T10:23:15;11.27;;;2.88;;
30398;SDS011;17195;50.838;7.214;2023-04-25T10:25:42;12.65;;;2.53;;
30398;SDS011;17195;50.838;7.214;2023-04-25T10:28:08;10.43;;;2.50;;
30398;SDS011;17195;50.838;7.214;2023-04-25T10:30:33;12.35;;;2.65;;
30398;SDS011;17195;50.838;7.214;2023-04-25T10:32:59;10.93;;;2.50;;
30398;SDS011;17195;50.838;7.214;2023-04-25T10:40:36;9.27;;;1.95;;
30398;SDS011;17195;50.838;7.214;2023-04-25T10:45:59;11.70;;;2.92;;
30398;SDS011;17195;50.838;7.214;2023-04-25T10:48:29;14.88;;;2.58;;
30398;SDS011;17195;50.838;7.214;2023-04-25T10:51:08;7.53;;;2.22;;
30398;SDS011;17195;50.838;7.214;2023-04-25T10:53:34;10.45;;;2.88;;
30398;SDS011;17195;50.838;7.214;2023-04-25T10:56:00;13.50;;;2.47;;
30398;SDS011;17195;50.838;7.214;2023-04-25T10:58:25;16.23;;;2.85;;
30398;SDS011;17195;50.838;7.214;2023-04-25T11:00:51;7.03;;;2.13;;
30398;SDS011;17195;50.838;7.214;2023-04-25T11:03:17;10.38;;;2.38;;
30398;SDS011;17195;50.838;7.214;2023-04-25T11:05:46;8.45;;;2.42;;
30398;SDS011;17195;50.838;7.214;2023-04-25T11:08:14;10.73;;;2.55;;
30398;SDS011;17195;50.838;7.214;2023-04-25T11:10:50;7.63;;;1.77;;
30398;SDS011;17195;50.838;7.214;2023-04-25T11:13:16;10.20;;;2.78;;
30398;SDS011;17195;50.838;7.214;2023-04-25T11:15:45;9.80;;;2.10;;
30398;SDS011;17195;50.838;7.214;2023-04-25T11:18:10;8.43;;;2.35;;
30398;SDS011;17195;50.838;7.214;2023-04-25T11:20:42;8.55;;;2.28;;
30398;SDS011;17195;50.838;7.214;2023-04-25T11:23:08;9.50;;;2.13;;
30398;SDS011;17195;50.838;7.214;2023-04-25T11:25:34;9.50;;;2.10;;
30398;SDS011;17195;50.838;7.214;2023-04-25T11:27:59;6.15;;;1.85;;
30398;SDS011;17195;50.838;7.214;2023-04-25T11:30:26;9.57;;;2.80;;
30398;SDS011;17195;50.838;7.214;2023-04-25T11:32:53;6.35;;;1.70;;
30398;SDS011;17195;50.838;7.214;2023-04-25T11:35:19;7.78;;;1.65;;
30398;SDS011;17195;50.838;7.214;2023-04-25T11:37:47;6.75;;;1.88;;
30398;SDS011;17195;50.838;7.214;2023-04-25T11:40:13;8.48;;;1.98;;
30398;SDS011;17195;50.838;7.214;2023-04-25T11:42:46;11.82;;;3.70;;
30398;SDS011;17195;50.838;7.214;2023-04-25T11:45:12;6.85;;;1.83;;
30398;SDS011;17195;50.838;7.214;2023-04-25T11:47:39;5.18;;;1.40;;
30398;SDS011;17195;50.838;7.214;2023-04-25T11:50:05;7.40;;;1.50;;
30398;SDS011;17195;50.838;7.214;2023-04-25T11:55:06;6.03;;;1.38;;
30398;SDS011;17195;50.838;7.214;2023-04-25T11:57:32;6.95;;;1.85;;
30398;SDS011;17195;50.838;7.214;2023-04-25T12:00:14;8.23;;;1.52;;
30398;SDS011;17195;50.838;7.214;2023-04-25T12:02:51;8.50;;;1.75;;
30398;SDS011;17195;50.838;7.214;2023-04-25T12:05:18;5.50;;;1.30;;
30398;SDS011;17195;50.838;7.214;2023-04-25T12:07:45;4.88;;;1.58;;
30398;SDS011;17195;50.838;7.214;2023-04-25T12:10:12;7.50;;;2.13;;
30398;SDS011;17195;50.838;7.214;2023-04-25T12:12:42;4.47;;;1.50;;
30398;SDS011;17195;50.838;7.214;2023-04-25T12:15:10;6.65;;;1.50;;
30398;SDS011;17195;50.838;7.214;2023-04-25T12:17:40;6.88;;;1.73;;
30398;SDS011;17195;50.838;7.214;2023-04-25T12:20:10;4.57;;;1.42;;
30398;SDS011;17195;50.838;7.214;2023-04-25T12:22:42;6.40;;;1.40;;
30398;SDS011;17195;50.838;7.214;2023-04-25T12:25:13;6.70;;;1.65;;
30398;SDS011;17195;50.838;7.214;2023-04-25T12:27:39;7.80;;;1.33;;
30398;SDS011;17195;50.838;7.214;2023-04-25T12:30:08;10.02;;;1.85;;
30398;SDS011;17195;50.838;7.214;2023-04-25T12:32:35;6.85;;;1.70;;
30398;SDS011;17195;50.838;7.214;2023-04-25T12:35:02;5.15;;;1.40;;
30398;SDS011;17195;50.838;7.214;2023-04-25T12:37:29;5.82;;;1.60;;
30398;SDS011;17195;50.838;7.214;2023-04-25T12:39:55;5.43;;;1.85;;
30398;SDS011;17195;50.838;7.214;2023-04-25T12:42:21;4.40;;;1.63;;
30398;SDS011;17195;50.838;7.214;2023-04-25T12:44:46;9.15;;;1.98;;
30398;SDS011;17195;50.838;7.214;2023-04-25T12:47:12;6.53;;;1.83;;
30398;SDS011;17195;50.838;7.214;2023-04-25T12:49:38;7.07;;;1.70;;
30398;SDS011;17195;50.838;7.214;2023-04-25T12:52:04;5.35;;;1.55;;
30398;SDS011;17195;50.838;7.214;2023-04-25T12:54:29;9.82;;;1.80;;
30398;SDS011;17195;50.838;7.214;2023-04-25T12:56:56;4.05;;;1.52;;
30398;SDS011;17195;50.838;7.214;2023-04-25T12:59:22;4.80;;;1.25;;
30398;SDS011;17195;50.838;7.214;2023-04-25T13:01:48;5.53;;;1.42;;
30398;SDS011;17195;50.838;7.214;2023-04-25T13:04:13;4.90;;;1.27;;
30398;SDS011;17195;50.838;7.214;2023-04-25T13:06:39;6.18;;;1.65;;
30398;SDS011;17195;50.838;7.214;2023-04-25T13:09:04;4.32;;;1.55;;
30398;SDS011;17195;50.838;7.214;2023-04-25T13:11:31;9.13;;;1.33;;
30398;SDS011;17195;50.838;7.214;2023-04-25T13:13:57;5.43;;;1.08;;
30398;SDS011;17195;50.838;7.214;2023-04-25T13:16:22;6.82;;;1.67;;
30398;SDS011;17195;50.838;7.214;2023-04-25T13:18:48;2.72;;;1.35;;
30398;SDS011;17195;50.838;7.214;2023-04-25T13:21:13;5.78;;;1.42;;
30398;SDS011;17195;50.838;7.214;2023-04-25T13:23:39;2.67;;;1.02;;
30398;SDS011;17195;50.838;7.214;2023-04-25T13:26:06;7.65;;;1.15;;
30398;SDS011;17195;50.838;7.214;2023-04-25T13:28:32;6.03;;;1.60;;
30398;SDS011;17195;50.838;7.214;2023-04-25T13:30:57;7.40;;;1.40;;
30398;SDS011;17195;50.838;7.214;2023-04-25T13:33:24;7.18;;;1.48;;
30398;SDS011;17195;50.838;7.214;2023-04-25T13:35:50;7.45;;;1.40;;
30398;SDS011;17195;50.838;7.214;2023-04-25T13:38:21;5.65;;;1.92;;
30398;SDS011;17195;50.838;7.214;2023-04-25T13:40:47;4.95;;;1.55;;
30398;SDS011;17195;50.838;7.214;2023-04-25T13:43:13;4.63;;;1.40;;
30398;SDS011;17195;50.838;7.214;2023-04-25T13:45:39;9.15;;;1.85;;
30398;SDS011;17195;50.838;7.214;2023-04-25T13:48:04;5.00;;;1.55;;
30398;SDS011;17195;50.838;7.214;2023-04-25T13:50:30;5.20;;;1.55;;
30398;SDS011;17195;50.838;7.214;2023-04-25T13:52:56;5.20;;;1.20;;
30398;SDS011;17195;50.838;7.214;2023-04-25T13:55:22;4.93;;;1.48;;
30398;SDS011;17195;50.838;7.214;2023-04-25T13:57:47;2.42;;;1.15;;
30398;SDS011;17195;50.838;7.214;2023-04-25T14:00:13;4.68;;;1.52;;
30398;SDS011;17195;50.838;7.214;2023-04-25T14:02:39;3.28;;;1.17;;
30398;SDS011;17195;50.838;7.214;2023-04-25T14:05:05;2.92;;;1.08;;
30398;SDS011;17195;50.838;7.214;2023-04-25T14:07:32;4.05;;;1.20;;
30398;SDS011;17195;50.838;7.214;2023-04-25T14:09:59;5.90;;;1.58;;
30398;SDS011;17195;50.838;7.214;2023-04-25T14:12:25;1.33;;;0.88;;
30398;SDS011;17195;50.838;7.214;2023-04-25T14:14:51;4.70;;;1.20;;
30398;SDS011;17195;50.838;7.214;2023-04-25T14:17:18;3.55;;;1.35;;
30398;SDS011;17195;50.838;7.214;2023-04-25T14:19:44;6.18;;;1.40;;
30398;SDS011;17195;50.838;7.214;2023-04-25T14:22:10;3.20;;;0.98;;
30398;SDS011;17195;50.838;7.214;2023-04-25T14:24:36;4.93;;;1.40;;
30398;SDS011;17195;50.838;7.214;2023-04-25T14:27:02;4.45;;;1.48;;
30398;SDS011;17195;50.838;7.214;2023-04-25T14:29:28;4.32;;;1.40;;
30398;SDS011;17195;50.838;7.214;2023-04-25T14:31:53;5.03;;;1.10;;
30398;SDS011;17195;50.838;7.214;2023-04-25T14:34:19;2.65;;;1.00;;
30398;SDS011;17195;50.838;7.214;2023-04-25T14:36:45;2.83;;;1.23;;
30398;SDS011;17195;50.838;7.214;2023-04-25T14:39:10;5.55;;;1.42;;
30398;SDS011;17195;50.838;7.214;2023-04-25T14:41:38;6.63;;;1.50;;
30398;SDS011;17195;50.838;7.214;2023-04-25T14:44:04;3.25;;;1.15;;
30398;SDS011;17195;50.838;7.214;2023-04-25T14:46:30;2.88;;;1.38;;
30398;SDS011;17195;50.838;7.214;2023-04-25T14:48:55;2.25;;;1.00;;
30398;SDS011;17195;50.838;7.214;2023-04-25T14:51:21;4.13;;;1.48;;
30398;SDS011;17195;50.838;7.214;2023-04-25T14:53:47;6.28;;;1.60;;
30398;SDS011;17195;50.838;7.214;2023-04-25T14:56:12;4.80;;;1.23;;
30398;SDS011;17195;50.838;7.214;2023-04-25T14:58:38;4.03;;;1.42;;
30398;SDS011;17195;50.838;7.214;2023-04-25T15:01:05;5.68;;;1.58;;
30398;SDS011;17195;50.838;7.214;2023-04-25T15:03:31;3.60;;;1.42;;
30398;SDS011;17195;50.838;7.214;2023-04-25T15:05:57;4.68;;;1.40;;
30398;SDS011;17195;50.838;7.214;2023-04-25T15:08:23;4.45;;;1.50;;
30398;SDS011;17195;50.838;7.214;2023-04-25T15:10:48;7.45;;;1.77;;
30398;SDS011;17195;50.838;7.214;2023-04-25T15:13:14;4.05;;;1.88;;
30398;SDS011;17195;50.838;7.214;2023-04-25T15:15:40;6.35;;;1.55;;
30398;SDS011;17195;50.838;7.214;2023-04-25T15:18:06;5.45;;;2.30;;
30398;SDS011;17195;50.838;7.214;2023-04-25T15:20:31;5.88;;;1.55;;
30398;SDS011;17195;50.838;7.214;2023-04-25T15:22:57;7.47;;;1.40;;
30398;SDS011;17195;50.838;7.214;2023-04-25T15:25:23;4.75;;;1.35;;
30398;SDS011;17195;50.838;7.214;2023-04-25T15:27:48;5.18;;;1.10;;
30398;SDS011;17195;50.838;7.214;2023-04-25T15:30:16;5.72;;;1.25;;
30398;SDS011;17195;50.838;7.214;2023-04-25T15:32:43;2.83;;;1.00;;
30398;SDS011;17195;50.838;7.214;2023-04-25T15:35:12;5.32;;;0.77;;
30398;SDS011;17195;50.838;7.214;2023-04-25T15:37:38;4.75;;;1.02;;
30398;SDS011;17195;50.838;7.214;2023-04-25T15:40:06;2.60;;;1.00;;
30398;SDS011;17195;50.838;7.214;2023-04-25T15:42:37;5.38;;;1.00;;
30398;SDS011;17195;50.838;7.214;2023-04-25T15:45:06;4.85;;;1.50;;
30398;SDS011;17195;50.838;7.214;2023-04-25T15:47:33;3.72;;;1.00;;
30398;SDS011;17195;50.838;7.214;2023-04-25T15:50:00;3.10;;;1.00;;
30398;SDS011;17195;50.838;7.214;2023-04-25T15:52:26;4.30;;;1.05;;